Time;durP1;ratioP1;P1;durP2;ratioP2;P2;SDS_P1;SDS_P2;PMS_P1;PMS_P2;Temp;Humidity;BMP_temperature;BMP_pressure;BME280_temperature;BME280_humidity;BME280_pressure;Samples;Min_cycle;Max_cycle;Signal;HPM_P1;HPM_P2
2021/10/22 00:01:12;;;;;;;4.15;3.70;;;;;;;15.98;67.74;100802.34;4999154;28;102323;-84
2021/10/22 00:03:39;;;;;;;4.78;3.65;;;;;;;15.99;67.50;100797.66;5000374;28;102599;-84
2021/10/22 00:06:07;;;;;;;3.92;3.22;;;;;;;15.99;67.30;100778.44;4997837;28;102263;-84
2021/10/22 00:08:33;;;;;;;4.05;3.42;;;;;;;15.99;67.29;100773.75;5000151;28;103706;-83
2021/10/22 00:11:00;;;;;;;4.15;3.60;;;;;;;15.99;67.60;100765.53;5013186;28;105886;-83
2021/10/22 00:13:26;;;;;;;4.28;3.35;;;;;;;15.99;67.19;100772.94;5014205;28;102240;-83
2021/10/22 00:15:52;;;;;;;3.47;3.17;;;;;;;15.99;67.60;100771.00;5003144;28;102632;-83
2021/10/22 00:18:20;;;;;;;4.20;3.58;;;;;;;15.99;67.31;100773.75;5009172;28;104072;-83
2021/10/22 00:20:48;;;;;;;4.68;3.63;;;;;;;15.98;67.33;100760.34;5011256;28;102515;-84
2021/10/22 00:23:15;;;;;;;3.93;3.40;;;;;;;15.99;67.30;100760.03;5009712;28;101947;-83
2021/10/22 00:25:41;;;;;;;4.07;3.30;;;;;;;15.99;67.39;100759.22;5006130;28;102554;-84
2021/10/22 00:28:07;;;;;;;3.85;3.40;;;;;;;15.99;67.54;100761.97;5008234;28;102602;-85
2021/10/22 00:30:34;;;;;;;4.78;3.63;;;;;;;15.99;67.51;100765.53;5009496;28;102057;-84
2021/10/22 00:33:01;;;;;;;4.15;3.40;;;;;;;15.98;67.40;100763.91;5011202;28;102504;-85
2021/10/22 00:35:27;;;;;;;3.83;3.28;;;;;;;15.99;67.47;100768.25;5016687;28;102137;-86
2021/10/22 00:37:55;;;;;;;4.50;3.45;;;;;;;15.98;67.36;100758.41;5014947;28;102779;-85
2021/10/22 00:40:24;;;;;;;4.13;3.72;;;;;;;15.99;67.39;100762.78;5008778;28;102139;-86
2021/10/22 00:42:54;;;;;;;4.22;3.80;;;;;;;15.98;67.41;100758.41;5013584;28;103884;-85
2021/10/22 00:45:21;;;;;;;4.55;3.35;;;;;;;15.99;67.39;100764.72;5008129;28;102197;-87
2021/10/22 00:47:50;;;;;;;3.45;3.15;;;;;;;16.00;67.14;100767.13;5014769;28;104089;-86
2021/10/22 00:50:17;;;;;;;3.72;3.28;;;;;;;15.98;67.41;100761.16;5016663;28;102612;-86
2021/10/22 00:52:45;;;;;;;4.10;3.70;;;;;;;15.98;67.40;100763.91;5009578;28;102229;-86
2021/10/22 00:55:14;;;;;;;4.23;3.20;;;;;;;15.99;67.76;100764.72;5002619;28;102532;-86
2021/10/22 00:57:41;;;;;;;4.20;3.38;;;;;;;15.98;67.66;100769.41;5009951;28;103313;-86
2021/10/22 01:00:09;;;;;;;3.70;3.30;;;;;;;15.99;67.10;100761.97;5006611;28;103463;-86
2021/10/22 01:02:36;;;;;;;3.95;3.50;;;;;;;16.00;67.65;100760.84;5004830;28;102278;-86
2021/10/22 01:05:13;;;;;;;3.70;3.30;;;;;;;15.99;67.47;100759.22;5013756;28;102854;-86
2021/10/22 01:07:41;;;;;;;4.05;3.63;;;;;;;15.99;67.81;100756.47;5015040;28;102725;-86
2021/10/22 01:10:09;;;;;;;3.78;3.35;;;;;;;15.99;67.71;100753.72;5017081;28;102153;-86
2021/10/22 01:12:37;;;;;;;3.85;3.40;;;;;;;15.99;67.82;100770.19;5016851;28;102291;-83
2021/10/22 01:15:05;;;;;;;;;;;;;;;15.99;67.57;100770.19;5008783;28;102350;-84
2021/10/22 01:17:43;;;;;;;3.88;3.25;;;;;;;15.98;67.38;100769.41;5014168;28;102763;-84
2021/10/22 01:20:12;;;;;;;4.05;3.42;;;;;;;15.98;67.78;100769.41;5013731;28;102105;-84
2021/10/22 01:22:41;;;;;;;;;;;;;;;15.98;67.45;100769.41;5008277;28;102355;-84
2021/10/22 01:25:11;;;;;;;3.83;3.40;;;;;;;15.98;67.51;100772.13;5017321;28;102081;-83
2021/10/22 01:27:38;;;;;;;4.43;3.58;;;;;;;15.98;67.44;100774.88;5014588;28;104142;-83
2021/10/22 01:30:07;;;;;;;4.03;3.30;;;;;;;15.99;67.33;100779.25;5014483;28;102137;-86
2021/10/22 01:32:34;;;;;;;3.77;3.43;;;;;;;15.98;67.26;100785.88;5009008;28;102161;-83
2021/10/22 01:35:01;;;;;;;3.67;3.38;;;;;;;15.99;67.46;100772.94;5006144;28;102694;-83
2021/10/22 01:37:27;;;;;;;3.85;3.13;;;;;;;15.99;67.55;100772.94;5008179;28;103286;-84
2021/10/22 01:39:55;;;;;;;3.40;3.10;;;;;;;15.99;67.49;100782.00;5007839;28;102296;-84
2021/10/22 01:42:23;;;;;;;4.28;3.88;;;;;;;15.99;67.44;100781.19;5006160;28;102115;-83
2021/10/22 01:44:50;;;;;;;3.47;3.17;;;;;;;15.98;67.49;100785.88;5013593;28;102482;-83
2021/10/22 01:47:17;;;;;;;3.88;3.47;;;;;;;15.98;67.29;100779.56;5012901;28;102728;-88
2021/10/22 01:49:44;;;;;;;3.55;3.17;;;;;;;15.99;67.32;100794.91;5009990;28;102484;-86
2021/10/22 01:52:11;;;;;;;3.63;3.15;;;;;;;15.98;67.47;100785.06;5009635;28;102038;-85
2021/10/22 01:54:37;;;;;;;4.68;3.28;;;;;;;15.99;67.36;100781.19;5005952;28;102314;-85
2021/10/22 01:57:06;;;;;;;4.43;3.78;;;;;;;15.98;67.72;100788.59;4997593;28;104241;-85
2021/10/22 01:59:33;;;;;;;3.90;3.50;;;;;;;15.98;67.81;100799.59;5018259;28;102607;-85
2021/10/22 02:01:59;;;;;;;6.45;3.47;;;;;;;15.98;67.17;100802.34;5008214;28;102446;-86
2021/10/22 02:04:26;;;;;;;4.93;3.85;;;;;;;15.98;67.66;100802.34;5021025;28;102548;-85
2021/10/22 02:06:52;;;;;;;3.85;3.53;;;;;;;15.98;67.46;100813.31;5018281;28;103884;-87
2021/10/22 02:09:19;;;;;;;3.90;3.45;;;;;;;15.97;67.41;100811.66;5019591;28;102147;-84
2021/10/22 02:11:46;;;;;;;3.67;3.30;;;;;;;15.99;67.46;100814.13;5018738;28;102251;-85
2021/10/22 02:14:16;;;;;;;4.10;3.63;;;;;;;15.98;67.77;100813.31;5018547;28;102524;-85
2021/10/22 02:16:44;;;;;;;3.53;3.22;;;;;;;15.97;67.62;100811.66;5014829;28;103863;-85
2021/10/22 02:19:11;;;;;;;4.05;3.65;;;;;;;15.98;67.43;100812.50;5005649;28;102180;-85
2021/10/22 02:21:38;;;;;;;4.28;3.58;;;;;;;15.97;67.69;100811.66;5001776;28;102128;-84
2021/10/22 02:24:06;;;;;;;4.18;3.60;;;;;;;15.98;67.71;100813.31;5010050;28;102533;-85
2021/10/22 02:26:32;;;;;;;4.95;3.50;;;;;;;15.98;67.54;100807.00;5009129;28;102407;-84
2021/10/22 02:28:59;;;;;;;3.83;3.45;;;;;;;15.98;67.74;100807.00;5011827;28;102488;-85
2021/10/22 02:31:27;;;;;;;4.38;3.95;;;;;;;15.98;67.54;100813.31;5010026;28;102255;-85
2021/10/22 02:33:55;;;;;;;3.93;3.50;;;;;;;15.97;67.86;100811.66;5000137;28;102638;-85
2021/10/22 02:36:21;;;;;;;3.90;3.45;;;;;;;15.98;67.69;100818.00;5004192;28;103915;-85
2021/10/22 02:38:48;;;;;;;4.03;3.63;;;;;;;15.98;67.55;100812.50;5012504;28;102247;-85
2021/10/22 02:41:15;;;;;;;3.88;3.50;;;;;;;15.98;67.65;100813.31;5002041;28;102429;-86
2021/10/22 02:43:42;;;;;;;3.97;3.58;;;;;;;15.98;67.42;100810.56;5013373;28;102356;-86
2021/10/22 02:46:08;;;;;;;3.80;3.47;;;;;;;15.98;67.32;100813.31;5004069;28;102559;-85
2021/10/22 02:48:36;;;;;;;3.53;3.22;;;;;;;15.97;67.28;100811.66;5010711;28;103080;-84
2021/10/22 02:51:04;;;;;;;3.97;3.58;;;;;;;15.97;67.80;100817.16;5015682;28;102288;-86
2021/10/22 02:53:31;;;;;;;4.20;3.80;;;;;;;15.99;67.75;100819.59;5007699;28;102409;-85
2021/10/22 02:55:57;;;;;;;3.83;3.53;;;;;;;15.97;67.38;100828.13;5010253;28;104961;-84
2021/10/22 02:58:24;;;;;;;3.53;3.22;;;;;;;15.97;67.83;100833.63;5001868;28;102238;-84
2021/10/22 03:00:51;;;;;;;3.90;3.58;;;;;;;15.97;67.99;100828.13;5012176;27;101970;-84
2021/10/22 03:03:17;;;;;;;4.55;4.10;;;;;;;15.98;67.42;100834.47;5005218;28;102729;-84
2021/10/22 03:05:45;;;;;;;4.13;3.72;;;;;;;15.97;67.39;100819.91;5013421;28;103060;-84
2021/10/22 03:08:12;;;;;;;3.72;3.42;;;;;;;15.97;67.78;100822.63;5013156;28;102147;-87
2021/10/22 03:10:39;;;;;;;4.30;3.47;;;;;;;15.97;67.74;100822.63;5007767;28;102317;-87
2021/10/22 03:13:06;;;;;;;5.43;3.50;;;;;;;15.97;67.45;100828.13;5014574;28;102822;-86
2021/10/22 03:15:33;;;;;;;3.70;3.40;;;;;;;15.98;67.85;100818.00;5013994;28;104061;-86
2021/10/22 03:18:00;;;;;;;4.55;4.07;;;;;;;15.97;67.55;100821.84;5009178;28;102128;-86
2021/10/22 03:20:27;;;;;;;4.03;3.38;;;;;;;15.97;67.40;100822.63;5012130;28;103602;-85
2021/10/22 03:22:55;;;;;;;4.18;3.78;;;;;;;15.97;67.39;100830.88;5013193;28;102169;-85
2021/10/22 03:25:22;;;;;;;4.30;3.90;;;;;;;15.96;67.54;100818.28;5013465;28;103917;-84
2021/10/22 03:27:49;;;;;;;4.28;3.88;;;;;;;15.97;67.77;100817.16;5014578;28;102504;-84
2021/10/22 03:30:15;;;;;;;3.70;3.40;;;;;;;15.97;67.74;100822.63;5014240;27;102224;-83
2021/10/22 03:32:42;;;;;;;4.32;3.85;;;;;;;15.96;67.74;100821.03;5016170;28;102188;-84
2021/10/22 03:35:10;;;;;;;3.63;3.33;;;;;;;15.97;67.30;100821.84;5011798;28;103036;-84
2021/10/22 03:37:36;;;;;;;4.05;3.67;;;;;;;15.96;67.30;100829.25;5012308;28;102290;-84
2021/10/22 03:40:05;;;;;;;3.92;3.53;;;;;;;15.97;67.60;100827.31;5012367;28;102441;-84
2021/10/22 03:42:32;;;;;;;3.90;3.60;;;;;;;15.97;67.65;100833.63;5007373;28;102299;-83
2021/10/22 03:44:59;;;;;;;4.10;3.70;;;;;;;15.96;67.51;100821.03;5013037;28;102537;-83
2021/10/22 03:47:25;;;;;;;7.20;3.78;;;;;;;15.96;67.55;100823.78;5001573;28;102461;-83
2021/10/22 03:49:53;;;;;;;9.15;4.35;;;;;;;15.96;67.61;100834.75;5004822;28;102250;-83
2021/10/22 03:52:19;;;;;;;6.30;3.70;;;;;;;15.95;67.83;100830.38;4992167;28;102746;-84
2021/10/22 03:54:46;;;;;;;10.10;3.42;;;;;;;15.96;67.41;100834.75;5012580;28;104052;-83
2021/10/22 03:57:13;;;;;;;4.05;3.65;;;;;;;15.96;67.92;100832.00;5006391;28;102184;-84
2021/10/22 03:59:41;;;;;;;3.90;3.47;;;;;;;15.96;67.71;100832.00;5005596;28;102518;-83
2021/10/22 04:02:08;;;;;;;4.72;3.58;;;;;;;15.96;67.61;100845.72;5014690;28;102368;-87
2021/10/22 04:04:35;;;;;;;4.10;3.70;;;;;;;15.96;67.71;100845.72;5013212;28;103296;-83
2021/10/22 04:07:02;;;;;;;3.85;3.45;;;;;;;15.96;67.66;100848.47;5013192;28;102357;-83
2021/10/22 04:09:31;;;;;;;3.90;3.60;;;;;;;15.95;67.81;100837.81;5013308;28;102107;-83
2021/10/22 04:11:58;;;;;;;;;;;;;;;15.96;67.87;100848.47;5013976;28;102279;-83
2021/10/22 04:14:25;;;;;;;4.20;3.80;;;;;;;15.96;67.80;100850.41;5012911;28;103909;-83
2021/10/22 04:16:52;;;;;;;4.10;3.70;;;;;;;15.95;67.47;100863.31;5009704;28;102457;-83
2021/10/22 04:19:18;;;;;;;4.43;4.03;;;;;;;15.95;67.49;100860.56;4995885;28;102630;-83
2021/10/22 04:21:46;;;;;;;4.13;3.72;;;;;;;15.96;67.40;100859.44;5008637;28;102504;-83
2021/10/22 04:24:13;;;;;;;4.30;3.90;;;;;;;15.94;67.66;100860.88;5012805;28;103753;-84
2021/10/22 04:26:39;;;;;;;4.15;3.80;;;;;;;15.95;67.86;100857.84;5012462;28;102348;-85
2021/10/22 04:29:06;;;;;;;4.50;4.03;;;;;;;15.95;67.64;100863.31;5001114;28;102778;-85
2021/10/22 04:31:35;;;;;;;4.22;3.92;;;;;;;15.95;67.37;100865.25;5007061;28;102670;-85
2021/10/22 04:34:02;;;;;;;3.85;3.47;;;;;;;15.95;67.91;100863.31;5005119;28;103889;-85
2021/10/22 04:36:29;;;;;;;4.85;4.35;;;;;;;15.95;67.78;100871.56;5014008;28;102399;-85
2021/10/22 04:41:44;;;;;;;4.40;4.00;;;;;;;15.94;67.84;100869.94;5013338;28;102217;-83
2021/10/22 04:44:10;;;;;;;4.50;4.07;;;;;;;15.94;67.95;100872.69;5012566;28;102778;-83
2021/10/22 04:46:39;;;;;;;4.38;3.97;;;;;;;15.94;67.31;100875.44;5004805;28;102446;-83
2021/10/22 04:49:05;;;;;;;4.65;4.25;;;;;;;15.95;67.42;100874.31;5010331;28;102910;-84
2021/10/22 04:51:32;;;;;;;4.63;4.22;;;;;;;15.93;67.41;100871.03;5012540;28;102923;-84
2021/10/22 04:53:59;;;;;;;4.60;4.15;;;;;;;15.94;67.99;100872.69;5010217;28;104582;-83
2021/10/22 04:56:25;;;;;;;5.13;4.63;;;;;;;15.94;67.80;100872.69;5012329;28;102283;-83
2021/10/22 04:58:52;;;;;;;4.53;4.13;;;;;;;15.95;67.97;100882.53;5005242;28;102528;-87
2021/10/22 05:01:19;;;;;;;4.72;4.32;;;;;;;15.94;67.66;100889.16;5007547;28;102244;-83
2021/10/22 05:03:46;;;;;;;5.00;4.50;;;;;;;15.96;67.97;100892.38;5008208;28;105906;-84
2021/10/22 05:06:13;;;;;;;4.72;4.32;;;;;;;15.96;68.09;100897.06;5012157;28;102513;-83
2021/10/22 05:08:40;;;;;;;4.95;4.45;;;;;;;15.95;67.60;100904.50;5008408;28;102636;-84
2021/10/22 05:11:06;;;;;;;5.93;4.85;;;;;;;15.95;67.68;100907.25;5008974;28;102609;-84
2021/10/22 05:13:33;;;;;;;5.22;4.57;;;;;;;15.95;67.75;100915.47;5009979;28;102702;-84
2021/10/22 05:16:00;;;;;;;5.03;4.53;;;;;;;15.96;67.70;100930.81;5005984;28;102292;-84
2021/10/22 05:18:31;;;;;;;5.70;5.10;;;;;;;15.97;68.22;100929.69;5008034;28;102063;-84
2021/10/22 05:20:59;;;;;;;5.40;4.85;;;;;;;15.97;67.68;100926.94;5014907;28;102025;-85
2021/10/22 05:23:26;;;;;;;5.28;4.72;;;;;;;15.97;68.11;100931.63;5002007;28;103694;-85
2021/10/22 05:25:53;;;;;;;5.47;4.93;;;;;;;15.97;68.17;100937.94;5011601;28;102202;-85
2021/10/22 05:28:19;;;;;;;5.03;4.53;;;;;;;15.96;67.70;100933.56;5015789;28;102488;-85
2021/10/22 05:30:46;;;;;;;5.65;4.60;;;;;;;15.97;67.79;100937.94;5011901;28;105930;-85
2021/10/22 05:33:13;;;;;;;5.30;4.80;;;;;;;15.98;67.84;100945.06;5010734;28;103889;-85
2021/10/22 05:35:40;;;;;;;5.40;4.88;;;;;;;15.97;67.98;100937.94;5009558;28;104018;-87
2021/10/22 05:38:08;;;;;;;5.10;4.60;;;;;;;15.98;67.63;100939.56;5009370;28;102661;-83
2021/10/22 05:40:35;;;;;;;5.60;5.00;;;;;;;15.97;67.66;100943.41;5015812;28;102502;-84
2021/10/22 05:43:02;;;;;;;5.30;4.80;;;;;;;15.98;68.12;100950.56;5010016;28;103942;-83
2021/10/22 05:45:29;;;;;;;5.70;4.75;;;;;;;15.98;67.83;100950.56;5015010;28;102457;-83
2021/10/22 05:47:57;;;;;;;5.78;5.15;;;;;;;15.98;67.73;100953.31;5014707;28;102402;-83
2021/10/22 05:50:24;;;;;;;5.43;4.82;;;;;;;15.99;68.26;100957.66;5015231;28;102154;-83
2021/10/22 05:52:50;;;;;;;5.28;4.68;;;;;;;15.99;68.19;100962.34;5015846;28;103860;-83
2021/10/22 05:55:19;;;;;;;5.47;4.95;;;;;;;15.99;67.89;100963.16;5013990;28;102343;-88
2021/10/22 05:57:45;;;;;;;5.18;4.68;;;;;;;16.00;68.13;100970.25;5013319;28;102551;-83
2021/10/22 06:00:13;;;;;;;5.90;5.00;;;;;;;16.00;67.94;100967.53;5013879;28;102548;-82
2021/10/22 06:02:40;;;;;;;5.70;5.10;;;;;;;16.00;68.27;100964.78;5014684;28;104384;-83
2021/10/22 06:05:08;;;;;;;5.50;4.93;;;;;;;16.01;67.79;100980.16;5015803;28;102083;-82
2021/10/22 06:07:34;;;;;;;6.18;5.05;;;;;;;16.01;68.46;100977.41;5009902;27;102602;-83
2021/10/22 06:10:02;;;;;;;5.15;4.70;;;;;;;16.01;68.02;100982.91;5009471;28;102215;-83
2021/10/22 06:12:32;;;;;;;6.15;4.78;;;;;;;16.03;67.75;100986.13;5012673;28;108251;-84
2021/10/22 06:14:59;;;;;;;5.23;4.77;;;;;;;16.04;67.88;100987.75;5010693;28;102177;-88
2021/10/22 06:17:26;;;;;;;5.78;5.18;;;;;;;16.03;68.19;100986.13;5005833;28;102069;-83
2021/10/22 06:19:56;;;;;;;5.80;5.13;;;;;;;16.04;67.77;100984.22;5009612;28;102469;-83
2021/10/22 06:22:40;;;;;;;5.65;5.07;;;;;;;16.04;67.89;100986.94;5007546;28;103879;-83
2021/10/22 06:25:07;;;;;;;5.57;5.07;;;;;;;16.05;67.92;100994.91;5009008;28;102172;-83
2021/10/22 06:27:35;;;;;;;4.93;4.53;;;;;;;16.04;68.40;100998.75;5003327;28;102820;-82
2021/10/22 06:30:02;;;;;;;5.93;5.07;;;;;;;16.05;68.16;101005.06;5011997;28;102440;-83
2021/10/22 06:32:29;;;;;;;5.95;5.35;;;;;;;16.05;68.35;101011.38;5004189;28;102774;-83
2021/10/22 06:34:59;;;;;;;7.03;5.20;;;;;;;16.05;68.41;101010.56;5016796;28;102260;-83
2021/10/22 06:37:25;;;;;;;6.43;5.82;;;;;;;16.06;68.49;101018.50;5013315;28;102437;-83
2021/10/22 06:39:52;;;;;;;6.03;5.30;;;;;;;16.06;68.19;101013.00;5016314;28;102303;-83
2021/10/22 06:42:18;;;;;;;5.80;5.28;;;;;;;16.06;68.38;101021.22;5013703;28;103539;-83
2021/10/22 06:44:46;;;;;;;5.60;5.07;;;;;;;16.06;67.97;101013.00;5018000;28;102212;-83
2021/10/22 06:47:12;;;;;;;6.40;5.38;;;;;;;16.07;68.38;101011.88;5007780;28;103348;-83
2021/10/22 06:49:39;;;;;;;6.53;5.82;;;;;;;16.07;67.94;101014.63;5020319;28;102165;-83
2021/10/22 06:52:06;;;;;;;7.15;5.82;;;;;;;16.07;68.40;101009.13;5015273;28;104954;-83
2021/10/22 06:54:32;;;;;;;6.18;5.55;;;;;;;16.08;68.15;101009.94;5007004;28;102024;-82
2021/10/22 06:56:59;;;;;;;6.82;5.80;;;;;;;16.09;68.24;101011.59;5019213;28;102567;-83
2021/10/22 06:59:25;;;;;;;6.40;5.72;;;;;;;16.10;68.25;101003.03;5010232;28;102804;-83
2021/10/22 07:01:55;;;;;;;6.47;5.88;;;;;;;16.10;67.91;101008.53;5013199;28;103905;-83
2021/10/22 07:04:21;;;;;;;5.63;5.13;;;;;;;16.09;68.37;101006.91;5013010;28;102186;-83
2021/10/22 07:09:33;;;;;;;6.03;4.85;;;;;;;16.11;68.34;101014.81;5016107;28;102212;-83
2021/10/22 07:12:03;;;;;;;6.95;5.72;;;;;;;16.13;68.16;101017.28;5012383;28;103786;-84
2021/10/22 07:14:33;;;;;;;6.28;5.70;;;;;;;16.13;68.38;101011.81;5014715;28;102118;-88
2021/10/22 07:17:04;;;;;;;7.25;5.90;;;;;;;16.12;67.90;101011.00;5015105;28;102415;-88
2021/10/22 07:19:31;;;;;;;6.20;5.60;;;;;;;16.14;67.88;101010.69;5010485;28;102398;-88
2021/10/22 07:22:04;;;;;;;6.05;5.45;;;;;;;16.14;68.50;101013.41;5007123;28;102626;-89
2021/10/22 07:24:32;;;;;;;5.95;5.38;;;;;;;16.14;68.22;101013.41;5008673;28;102149;-89
2021/10/22 07:26:59;;;;;;;6.38;5.20;;;;;;;16.15;67.96;101004.88;5000177;28;102248;-88
2021/10/22 07:29:26;;;;;;;6.53;5.28;;;;;;;16.15;67.99;101009.56;5016034;28;102234;-88
2021/10/22 07:31:53;;;;;;;6.28;5.55;;;;;;;16.16;68.16;101009.25;5014073;28;102837;-83
2021/10/22 07:34:22;;;;;;;5.82;5.20;;;;;;;16.17;68.04;101012.81;5009456;28;102456;-88
2021/10/22 07:36:49;;;;;;;5.88;5.38;;;;;;;16.17;67.95;101018.31;5012043;28;102516;-88
2021/10/22 07:39:17;;;;;;;6.88;4.97;;;;;;;16.17;68.15;101018.31;5014352;28;102466;-88
2021/10/22 07:41:44;;;;;;;6.28;5.68;;;;;;;16.18;68.01;101019.94;5012010;28;102710;-89
2021/10/22 07:44:11;;;;;;;5.93;5.43;;;;;;;16.19;68.16;101010.56;5001579;28;102225;-89
2021/10/22 07:46:38;;;;;;;5.72;5.13;;;;;;;16.20;68.13;101009.47;5006179;28;102244;-88
2021/10/22 07:49:04;;;;;;;6.05;5.45;;;;;;;16.20;68.09;101007.53;5003835;28;103492;-89
2021/10/22 07:51:33;;;;;;;5.38;4.88;;;;;;;16.21;67.97;101008.34;5013460;28;102753;-88
2021/10/22 07:53:59;;;;;;;6.00;5.38;;;;;;;16.21;68.47;101003.66;5010302;28;102081;-83
2021/10/22 07:56:26;;;;;;;5.63;5.13;;;;;;;16.22;68.03;100999.00;5008128;28;102315;-84
2021/10/22 07:58:53;;;;;;;5.53;5.03;;;;;;;16.23;68.11;101006.13;5015992;28;102219;-84
2021/10/22 08:01:20;;;;;;;7.80;4.80;;;;;;;16.23;68.34;101004.19;5007453;28;103872;-84
2021/10/22 08:03:48;;;;;;;6.68;5.43;;;;;;;16.23;68.09;101000.63;5009770;28;102248;-84
2021/10/22 08:06:15;;;;;;;6.13;5.10;;;;;;;16.24;68.16;100999.50;5014498;28;102208;-84
2021/10/22 08:08:45;;;;;;;6.40;5.80;;;;;;;16.25;68.64;101001.13;5002875;28;103166;-84
2021/10/22 08:11:13;;;;;;;6.35;5.38;;;;;;;16.25;68.42;101001.94;5011828;28;104662;-84
2021/10/22 08:13:39;;;;;;;5.55;5.00;;;;;;;16.26;67.85;101000.00;5013936;28;102381;-84
2021/10/22 08:16:06;;;;;;;5.32;4.82;;;;;;;16.26;68.05;101006.34;5009261;28;102184;-83
2021/10/22 08:18:33;;;;;;;5.10;4.60;;;;;;;16.28;68.36;101008.78;5014056;28;102305;-84
2021/10/22 08:21:16;;;;;;;5.13;4.63;;;;;;;16.28;68.14;101014.25;5012044;28;102711;-84
2021/10/22 08:23:44;;;;;;;5.95;5.00;;;;;;;16.29;68.30;101010.41;5003082;28;102219;-84
2021/10/22 08:26:10;;;;;;;6.17;5.20;;;;;;;16.30;67.84;101009.28;5009744;28;102537;-84
2021/10/22 08:28:37;;;;;;;4.55;4.15;;;;;;;16.31;68.24;101016.41;5010975;28;102481;-84
2021/10/22 08:31:06;;;;;;;5.00;4.60;;;;;;;16.31;67.79;101013.66;5002067;28;104016;-84
2021/10/22 08:33:33;;;;;;;5.55;4.38;;;;;;;16.31;68.02;101008.19;5008914;28;102564;-83
2021/10/22 08:36:00;;;;;;;4.95;4.53;;;;;;;16.32;68.07;101013.34;5012880;28;102394;-83
2021/10/22 08:38:28;;;;;;;4.70;4.30;;;;;;;16.34;67.92;101019.38;5003999;28;102566;-84
2021/10/22 08:40:57;;;;;;;5.22;4.70;;;;;;;16.34;68.29;101019.38;5005985;28;102944;-84
2021/10/22 08:43:25;;;;;;;5.28;4.78;;;;;;;16.34;68.54;101007.56;5007364;28;102431;-83
2021/10/22 08:45:53;;;;;;;4.95;4.47;;;;;;;16.36;67.92;101010.00;4999759;28;102187;-83
2021/10/22 08:48:22;;;;;;;5.03;4.60;;;;;;;16.37;68.46;101017.13;5014199;28;102318;-88
2021/10/22 08:50:50;;;;;;;5.68;4.80;;;;;;;16.37;68.48;101011.63;5014526;28;103715;-83
2021/10/22 08:53:17;;;;;;;5.00;4.55;;;;;;;16.38;68.10;101011.34;5014795;28;102406;-84
2021/10/22 08:55:44;;;;;;;5.15;4.63;;;;;;;16.38;68.02;101025.06;5018220;28;103478;-84
2021/10/22 08:58:12;;;;;;;5.18;4.68;;;;;;;16.38;68.16;101019.56;5014796;28;105249;-84
2021/10/22 09:00:40;;;;;;;5.82;4.55;;;;;;;16.39;68.36;101018.44;5004862;28;103867;-84
2021/10/22 09:03:08;;;;;;;5.03;4.53;;;;;;;16.39;68.56;101015.69;5013202;28;102452;-83
2021/10/22 09:05:35;;;;;;;5.67;4.70;;;;;;;16.40;68.51;101011.84;5010671;28;102320;-84
2021/10/22 09:08:06;;;;;;;4.60;4.20;;;;;;;16.41;67.96;101012.63;5010087;28;103565;-87
2021/10/22 09:10:35;;;;;;;5.10;4.60;;;;;;;16.41;68.06;101010.75;4997628;28;102490;-87
2021/10/22 09:13:06;;;;;;;5.65;4.50;;;;;;;16.42;68.03;101012.34;5007330;28;102450;-86
2021/10/22 09:15:37;;;;;;;5.55;4.65;;;;;;;16.42;68.47;101009.59;5012946;28;102286;-88
2021/10/22 09:18:15;;;;;;;4.75;4.35;;;;;;;16.43;68.50;101013.97;5013243;28;102594;-88
2021/10/22 09:20:48;;;;;;;5.10;4.60;;;;;;;16.44;68.16;101012.03;5009873;28;103153;-88
2021/10/22 09:23:24;;;;;;;4.80;4.40;;;;;;;16.44;67.96;101012.03;5012680;28;102142;-88
2021/10/22 09:25:51;;;;;;;4.32;3.85;;;;;;;16.45;67.99;101010.94;5009165;28;102329;-87
2021/10/22 09:28:26;;;;;;;5.05;4.57;;;;;;;16.45;68.09;101014.50;5010784;28;102181;-84
2021/10/22 09:30:54;;;;;;;5.18;4.68;;;;;;;16.45;68.34;101006.25;5008103;28;102882;-84
2021/10/22 09:33:21;;;;;;;4.28;3.88;;;;;;;16.46;68.57;101007.88;5011639;28;102252;-84
2021/10/22 09:35:50;;;;;;;4.82;4.32;;;;;;;16.47;68.31;101003.19;5009883;28;102395;-85
2021/10/22 09:38:18;;;;;;;;;;;;;;;16.48;68.29;101002.91;5010588;28;103065;-85
2021/10/22 09:40:47;;;;;;;5.07;4.22;;;;;;;16.47;68.08;101001.25;5012434;28;103873;-85
2021/10/22 09:43:19;;;;;;;4.63;4.20;;;;;;;16.48;68.38;101002.91;5012558;28;102292;-85
2021/10/22 09:45:47;;;;;;;4.82;4.35;;;;;;;16.48;68.26;101008.41;5016279;28;102400;-86
2021/10/22 09:48:30;;;;;;;5.20;4.70;;;;;;;16.48;68.25;101002.91;5007608;28;102149;-85
2021/10/22 09:51:18;;;;;;;5.82;4.60;;;;;;;16.48;67.97;100997.41;5007951;28;104147;-85
2021/10/22 09:53:45;;;;;;;4.63;4.22;;;;;;;16.49;68.48;100999.03;5014220;28;102134;-85
2021/10/22 09:56:19;;;;;;;4.80;4.32;;;;;;;16.49;67.86;100999.03;5015572;28;102153;-85
2021/10/22 09:58:57;;;;;;;6.47;4.82;;;;;;;16.49;67.99;100990.78;5001708;28;102596;-84
2021/10/22 10:01:29;;;;;;;3.80;3.45;;;;;;;16.50;67.97;100989.66;5001775;28;104187;-85
2021/10/22 10:03:59;;;;;;;5.05;4.60;;;;;;;16.50;67.95;100994.34;5008917;28;102419;-86
2021/10/22 10:06:27;;;;;;;5.55;4.93;;;;;;;16.50;67.92;101003.41;5006640;28;102477;-86
2021/10/22 10:08:54;;;;;;;4.72;4.32;;;;;;;16.50;67.85;101000.66;5001673;28;102267;-86
2021/10/22 10:11:23;;;;;;;4.53;4.13;;;;;;;16.50;67.93;101003.41;5006234;28;104041;-86
2021/10/22 10:13:50;;;;;;;5.22;4.28;;;;;;;16.51;67.85;100996.78;5017139;28;101952;-86
2021/10/22 10:16:18;;;;;;;4.95;4.55;;;;;;;16.51;68.15;100985.78;5006354;28;102212;-86
2021/10/22 10:18:48;;;;;;;5.28;4.78;;;;;;;16.52;68.15;100992.94;5014188;28;102118;-86
2021/10/22 10:21:18;;;;;;;5.32;4.82;;;;;;;16.51;68.29;100993.22;5010420;28;102704;-86
2021/10/22 10:23:46;;;;;;;4.60;4.20;;;;;;;16.53;67.93;100994.56;5007546;28;102205;-85
2021/10/22 10:26:25;;;;;;;4.78;4.38;;;;;;;16.52;68.06;100984.69;5013250;28;102089;-85
2021/10/22 10:28:53;;;;;;;4.78;4.38;;;;;;;16.52;68.42;100987.44;5008923;28;102165;-85
2021/10/22 10:31:31;;;;;;;4.30;3.95;;;;;;;16.52;67.94;100981.94;5004845;28;102757;-85
2021/10/22 10:34:00;;;;;;;5.90;4.55;;;;;;;16.52;67.84;100981.13;5007723;28;102656;-88
2021/10/22 10:36:47;;;;;;;4.88;4.28;;;;;;;16.52;68.35;100989.38;5008889;28;102225;-90
2021/10/22 10:39:14;;;;;;;4.60;4.18;;;;;;;16.52;67.93;100987.44;5011441;28;102519;-87
2021/10/22 10:41:40;;;;;;;5.10;4.60;;;;;;;16.51;67.71;100980.28;5013193;28;105381;-84
2021/10/22 10:44:31;;;;;;;4.65;4.25;;;;;;;16.51;67.82;100979.50;5004863;28;102094;-87
2021/10/22 10:46:58;;;;;;;4.63;4.22;;;;;;;16.51;67.78;100980.28;5003164;28;102831;-87
2021/10/22 10:49:59;;;;;;;4.68;4.28;;;;;;;16.51;68.37;100966.56;5010758;28;102118;-87
2021/10/22 10:52:52;;;;;;;4.63;4.22;;;;;;;16.51;68.35;100969.31;5013737;28;102696;-88
2021/10/22 10:57:52;;;;;;;4.40;4.00;;;;;;;16.51;67.81;100974.00;5010789;28;102048;-87
2021/10/22 11:00:22;;;;;;;5.05;4.53;;;;;;;16.51;68.21;100968.50;5004269;28;102197;-89
2021/10/22 11:03:15;;;;;;;5.70;4.47;;;;;;;16.51;68.30;100963.00;5003410;28;103864;-82
2021/10/22 11:06:09;;;;;;;4.88;4.47;;;;;;;16.50;68.14;100956.69;4995109;28;102282;-84
2021/10/22 11:08:45;;;;;;;5.05;4.65;;;;;;;16.50;68.19;100959.44;4990278;28;102834;-83
2021/10/22 11:11:44;;;;;;;4.95;4.45;;;;;;;16.50;67.70;100959.44;4994203;28;102244;-84
2021/10/22 11:14:22;;;;;;;5.18;4.68;;;;;;;16.50;67.49;100959.44;4985294;28;103237;-84
2021/10/22 11:16:53;;;;;;;4.97;4.50;;;;;;;16.50;67.83;100953.16;5013105;28;102225;-83
2021/10/22 11:19:26;;;;;;;5.00;4.60;;;;;;;16.49;68.28;100955.06;5009841;28;103168;-83
2021/10/22 11:21:54;;;;;;;4.97;4.47;;;;;;;16.50;68.09;100951.19;5007814;27;102315;-83
2021/10/22 11:24:24;;;;;;;5.28;4.78;;;;;;;16.49;68.21;100952.34;5013440;28;102702;-82
2021/10/22 11:27:02;;;;;;;5.32;4.82;;;;;;;16.48;67.60;100942.47;5016967;28;102458;-82
2021/10/22 11:29:30;;;;;;;4.93;4.43;;;;;;;16.49;67.82;100938.59;5011671;28;102881;-83
2021/10/22 11:31:58;;;;;;;4.68;4.28;;;;;;;16.49;67.65;100948.78;5018106;28;102502;-83